sensor_id;sensor_type;location;lat;lon;timestamp;temperature;humidity
2407;DHT22;37709;53.480;9.688;2023-04-16T00:01:42;7.10;99.90
2407;DHT22;37709;53.480;9.688;2023-04-16T00:04:09;7.10;99.90
2407;DHT22;37709;53.480;9.688;2023-04-16T00:06:36;7.20;99.90
2407;DHT22;37709;53.480;9.688;2023-04-16T00:09:04;7.10;99.90
2407;DHT22;37709;53.480;9.688;2023-04-16T00:11:31;7.00;99.90
2407;DHT22;37709;53.480;9.688;2023-04-16T00:13:58;6.90;99.90
2407;DHT22;37709;53.480;9.688;2023-04-16T00:16:26;6.80;99.90
2407;DHT22;37709;53.480;9.688;2023-04-16T00:18:54;6.70;99.90
2407;DHT22;37709;53.480;9.688;2023-04-16T00:21:21;6.60;99.90
2407;DHT22;37709;53.480;9.688;2023-04-16T00:23:49;6.60;99.90
2407;DHT22;37709;53.480;9.688;2023-04-16T00:26:16;6.50;99.90
2407;DHT22;37709;53.480;9.688;2023-04-16T00:28:45;6.60;99.90
2407;DHT22;37709;53.480;9.688;2023-04-16T00:31:12;6.40;99.90
2407;DHT22;37709;53.480;9.688;2023-04-16T00:33:40;6.40;99.90
2407;DHT22;37709;53.480;9.688;2023-04-16T00:36:08;6.30;99.90
2407;DHT22;37709;53.480;9.688;2023-04-16T00:38:35;6.20;99.90
2407;DHT22;37709;53.480;9.688;2023-04-16T00:41:03;6.20;99.90
2407;DHT22;37709;53.480;9.688;2023-04-16T00:43:30;6.20;99.90
2407;DHT22;37709;53.480;9.688;2023-04-16T00:45:58;6.20;99.90
2407;DHT22;37709;53.480;9.688;2023-04-16T00:48:25;6.20;99.90
2407;DHT22;37709;53.480;9.688;2023-04-16T00:50:54;6.20;99.90
2407;DHT22;37709;53.480;9.688;2023-04-16T00:53:22;6.30;99.90
2407;DHT22;37709;53.480;9.688;2023-04-16T00:55:50;6.40;99.90
2407;DHT22;37709;53.480;9.688;2023-04-16T00:58:17;6.40;99.90
2407;DHT22;37709;53.480;9.688;2023-04-16T01:00:45;6.50;99.90
2407;DHT22;37709;53.480;9.688;2023-04-16T01:03:12;6.50;99.90
2407;DHT22;37709;53.480;9.688;2023-04-16T01:05:40;6.50;99.90
2407;DHT22;37709;53.480;9.688;2023-04-16T01:08:18;6.50;99.90
2407;DHT22;37709;53.480;9.688;2023-04-16T01:10:46;6.50;99.90
2407;DHT22;37709;53.480;9.688;2023-04-16T01:13:14;6.50;99.90
2407;DHT22;37709;53.480;9.688;2023-04-16T01:15:41;6.60;99.90
2407;DHT22;37709;53.480;9.688;2023-04-16T01:18:19;6.60;99.90
2407;DHT22;37709;53.480;9.688;2023-04-16T01:20:48;6.60;99.90
2407;DHT22;37709;53.480;9.688;2023-04-16T01:23:15;6.60;99.90
2407;DHT22;37709;53.480;9.688;2023-04-16T01:25:45;6.70;99.90
2407;DHT22;37709;53.480;9.688;2023-04-16T01:28:13;6.70;99.90
2407;DHT22;37709;53.480;9.688;2023-04-16T01:30:40;6.70;99.90
2407;DHT22;37709;53.480;9.688;2023-04-16T01:33:20;6.70;99.90
2407;DHT22;37709;53.480;9.688;2023-04-16T01:35:48;6.70;99.90
2407;DHT22;37709;53.480;9.688;2023-04-16T01:38:15;6.70;99.90
2407;DHT22;37709;53.480;9.688;2023-04-16T01:40:42;6.70;99.90
2407;DHT22;37709;53.480;9.688;2023-04-16T01:43:11;6.60;99.90
2407;DHT22;37709;53.480;9.688;2023-04-16T01:45:38;6.70;99.90
2407;DHT22;37709;53.480;9.688;2023-04-16T01:48:06;6.60;99.90
2407;DHT22;37709;53.480;9.688;2023-04-16T01:50:34;6.60;99.90
2407;DHT22;37709;53.480;9.688;2023-04-16T01:53:01;6.70;99.90
2407;DHT22;37709;53.480;9.688;2023-04-16T01:55:32;6.60;99.90
2407;DHT22;37709;53.480;9.688;2023-04-16T01:58:00;6.60;99.90
2407;DHT22;37709;53.480;9.688;2023-04-16T02:00:31;6.60;99.90
2407;DHT22;37709;53.480;9.688;2023-04-16T02:02:58;6.60;99.90
2407;DHT22;37709;53.480;9.688;2023-04-16T02:05:27;6.70;99.90
2407;DHT22;37709;53.480;9.688;2023-04-16T02:07:55;6.70;99.90
2407;DHT22;37709;53.480;9.688;2023-04-16T02:10:23;6.70;99.90
2407;DHT22;37709;53.480;9.688;2023-04-16T02:12:50;6.70;99.90
2407;DHT22;37709;53.480;9.688;2023-04-16T02:15:17;6.70;99.90
2407;DHT22;37709;53.480;9.688;2023-04-16T02:17:45;6.80;99.90
2407;DHT22;37709;53.480;9.688;2023-04-16T02:20:15;6.80;99.90
2407;DHT22;37709;53.480;9.688;2023-04-16T02:22:51;6.80;99.90
2407;DHT22;37709;53.480;9.688;2023-04-16T02:25:21;6.80;99.90
2407;DHT22;37709;53.480;9.688;2023-04-16T02:27:51;6.80;99.90
2407;DHT22;37709;53.480;9.688;2023-04-16T02:30:36;6.80;99.90
2407;DHT22;37709;53.480;9.688;2023-04-16T02:33:07;6.70;99.90
2407;DHT22;37709;53.480;9.688;2023-04-16T02:35:38;6.70;99.90
2407;DHT22;37709;53.480;9.688;2023-04-16T02:38:07;6.70;99.90
2407;DHT22;37709;53.480;9.688;2023-04-16T02:40:35;6.70;99.90
2407;DHT22;37709;53.480;9.688;2023-04-16T02:43:03;6.70;99.90
2407;DHT22;37709;53.480;9.688;2023-04-16T02:45:30;6.70;99.90
2407;DHT22;37709;53.480;9.688;2023-04-16T02:47:57;6.70;99.90
2407;DHT22;37709;53.480;9.688;2023-04-16T02:50:25;6.70;99.90
2407;DHT22;37709;53.480;9.688;2023-04-16T02:52:53;6.70;99.90
2407;DHT22;37709;53.480;9.688;2023-04-16T02:55:21;6.70;99.90
2407;DHT22;37709;53.480;9.688;2023-04-16T02:57:48;6.70;99.90
2407;DHT22;37709;53.480;9.688;2023-04-16T03:00:16;6.70;99.90
2407;DHT22;37709;53.480;9.688;2023-04-16T03:02:43;6.80;99.90
2407;DHT22;37709;53.480;9.688;2023-04-16T03:05:11;6.80;99.90
2407;DHT22;37709;53.480;9.688;2023-04-16T03:07:38;6.80;99.90
2407;DHT22;37709;53.480;9.688;2023-04-16T03:10:08;6.70;99.90
2407;DHT22;37709;53.480;9.688;2023-04-16T03:12:35;6.70;99.90
2407;DHT22;37709;53.480;9.688;2023-04-16T03:15:06;6.80;99.90
2407;DHT22;37709;53.480;9.688;2023-04-16T03:17:33;6.80;99.90
2407;DHT22;37709;53.480;9.688;2023-04-16T03:20:01;6.80;99.90
2407;DHT22;37709;53.480;9.688;2023-04-16T03:22:28;6.80;99.90
2407;DHT22;37709;53.480;9.688;2023-04-16T03:24:55;6.80;99.90
2407;DHT22;37709;53.480;9.688;2023-04-16T03:27:23;6.80;99.90
2407;DHT22;37709;53.480;9.688;2023-04-16T03:29:51;6.80;99.90
2407;DHT22;37709;53.480;9.688;2023-04-16T03:32:18;6.90;99.90
2407;DHT22;37709;53.480;9.688;2023-04-16T03:34:46;6.90;99.90
2407;DHT22;37709;53.480;9.688;2023-04-16T03:37:14;6.90;99.90
2407;DHT22;37709;53.480;9.688;2023-04-16T03:39:41;7.00;99.90
2407;DHT22;37709;53.480;9.688;2023-04-16T03:42:10;6.90;99.90
2407;DHT22;37709;53.480;9.688;2023-04-16T03:44:37;7.00;99.90
2407;DHT22;37709;53.480;9.688;2023-04-16T03:47:05;7.00;99.90
2407;DHT22;37709;53.480;9.688;2023-04-16T03:49:32;7.00;99.90
2407;DHT22;37709;53.480;9.688;2023-04-16T03:51:59;7.00;99.90
2407;DHT22;37709;53.480;9.688;2023-04-16T03:54:26;7.10;99.90
2407;DHT22;37709;53.480;9.688;2023-04-16T03:57:05;7.10;99.90
2407;DHT22;37709;53.480;9.688;2023-04-16T03:59:33;7.10;99.90
2407;DHT22;37709;53.480;9.688;2023-04-16T04:02:01;7.10;99.90
2407;DHT22;37709;53.480;9.688;2023-04-16T04:04:28;7.20;99.90
2407;DHT22;37709;53.480;9.688;2023-04-16T04:06:57;7.20;99.90
2407;DHT22;37709;53.480;9.688;2023-04-16T04:09:25;7.20;99.90
2407;DHT22;37709;53.480;9.688;2023-04-16T04:11:53;7.20;99.90
2407;DHT22;37709;53.480;9.688;2023-04-16T04:14:20;7.20;99.90
2407;DHT22;37709;53.480;9.688;2023-04-16T04:16:48;7.20;99.90
2407;DHT22;37709;53.480;9.688;2023-04-16T04:19:15;7.20;99.90
2407;DHT22;37709;53.480;9.688;2023-04-16T04:21:42;7.20;99.90
2407;DHT22;37709;53.480;9.688;2023-04-16T04:24:09;7.30;99.90
2407;DHT22;37709;53.480;9.688;2023-04-16T04:26:37;7.30;99.90
2407;DHT22;37709;53.480;9.688;2023-04-16T04:29:04;7.30;99.90
2407;DHT22;37709;53.480;9.688;2023-04-16T04:31:31;7.30;99.90
2407;DHT22;37709;53.480;9.688;2023-04-16T04:33:59;7.30;99.90
2407;DHT22;37709;53.480;9.688;2023-04-16T04:36:27;7.30;99.90
2407;DHT22;37709;53.480;9.688;2023-04-16T04:38:54;7.30;99.90
2407;DHT22;37709;53.480;9.688;2023-04-16T04:41:22;7.30;99.90
2407;DHT22;37709;53.480;9.688;2023-04-16T04:43:50;7.30;99.90
2407;DHT22;37709;53.480;9.688;2023-04-16T04:46:17;7.30;99.90
2407;DHT22;37709;53.480;9.688;2023-04-16T04:48:45;7.30;99.90
2407;DHT22;37709;53.480;9.688;2023-04-16T04:51:12;7.30;99.90
2407;DHT22;37709;53.480;9.688;2023-04-16T04:53:42;7.30;99.90
2407;DHT22;37709;53.480;9.688;2023-04-16T04:56:09;7.30;99.90
2407;DHT22;37709;53.480;9.688;2023-04-16T04:58:40;7.30;99.90
2407;DHT22;37709;53.480;9.688;2023-04-16T05:01:08;7.30;99.90
2407;DHT22;37709;53.480;9.688;2023-04-16T05:03:36;7.30;99.90
2407;DHT22;37709;53.480;9.688;2023-04-16T05:06:03;7.40;99.90
2407;DHT22;37709;53.480;9.688;2023-04-16T05:08:30;7.30;99.90
2407;DHT22;37709;53.480;9.688;2023-04-16T05:10:57;7.40;99.90
2407;DHT22;37709;53.480;9.688;2023-04-16T05:13:25;7.40;99.90
2407;DHT22;37709;53.480;9.688;2023-04-16T05:15:52;7.40;99.90
2407;DHT22;37709;53.480;9.688;2023-04-16T05:18:19;7.40;99.90
2407;DHT22;37709;53.480;9.688;2023-04-16T05:20:46;7.40;99.90
2407;DHT22;37709;53.480;9.688;2023-04-16T05:23:13;7.50;99.90
2407;DHT22;37709;53.480;9.688;2023-04-16T05:25:41;7.50;99.90
2407;DHT22;37709;53.480;9.688;2023-04-16T05:28:12;7.50;99.90
2407;DHT22;37709;53.480;9.688;2023-04-16T05:30:39;7.60;99.90
2407;DHT22;37709;53.480;9.688;2023-04-16T05:33:07;7.60;99.90
2407;DHT22;37709;53.480;9.688;2023-04-16T05:35:34;7.70;99.90
2407;DHT22;37709;53.480;9.688;2023-04-16T05:38:02;7.70;99.90
2407;DHT22;37709;53.480;9.688;2023-04-16T05:40:31;7.80;99.90
2407;DHT22;37709;53.480;9.688;2023-04-16T05:42:58;7.80;99.90
2407;DHT22;37709;53.480;9.688;2023-04-16T05:45:25;7.80;99.90
2407;DHT22;37709;53.480;9.688;2023-04-16T05:47:54;7.90;99.90
2407;DHT22;37709;53.480;9.688;2023-04-16T05:50:21;7.90;99.90
2407;DHT22;37709;53.480;9.688;2023-04-16T05:52:49;7.90;99.90
2407;DHT22;37709;53.480;9.688;2023-04-16T05:55:16;7.90;99.90
2407;DHT22;37709;53.480;9.688;2023-04-16T05:57:43;8.00;99.90
2407;DHT22;37709;53.480;9.688;2023-04-16T06:00:11;8.00;99.90
2407;DHT22;37709;53.480;9.688;2023-04-16T06:02:39;8.10;99.90
2407;DHT22;37709;53.480;9.688;2023-04-16T06:05:07;8.10;99.90
2407;DHT22;37709;53.480;9.688;2023-04-16T06:07:34;8.10;99.90
2407;DHT22;37709;53.480;9.688;2023-04-16T06:10:02;8.20;99.90
2407;DHT22;37709;53.480;9.688;2023-04-16T06:12:29;8.20;99.90
2407;DHT22;37709;53.480;9.688;2023-04-16T06:14:57;8.20;99.90
2407;DHT22;37709;53.480;9.688;2023-04-16T06:17:24;8.30;99.90
2407;DHT22;37709;53.480;9.688;2023-04-16T06:19:52;8.40;99.90
2407;DHT22;37709;53.480;9.688;2023-04-16T06:22:19;8.50;99.90
2407;DHT22;37709;53.480;9.688;2023-04-16T06:24:46;8.60;99.90
2407;DHT22;37709;53.480;9.688;2023-04-16T06:27:13;8.70;99.90
2407;DHT22;37709;53.480;9.688;2023-04-16T06:29:41;8.80;99.90
2407;DHT22;37709;53.480;9.688;2023-04-16T06:32:08;8.80;99.90
2407;DHT22;37709;53.480;9.688;2023-04-16T06:34:37;8.80;99.90
2407;DHT22;37709;53.480;9.688;2023-04-16T06:37:04;8.80;99.90
2407;DHT22;37709;53.480;9.688;2023-04-16T06:39:36;8.90;99.90
2407;DHT22;37709;53.480;9.688;2023-04-16T06:42:04;8.80;99.90
2407;DHT22;37709;53.480;9.688;2023-04-16T06:44:31;8.80;99.90
2407;DHT22;37709;53.480;9.688;2023-04-16T06:46:58;8.80;99.90
2407;DHT22;37709;53.480;9.688;2023-04-16T06:49:27;8.80;99.90
2407;DHT22;37709;53.480;9.688;2023-04-16T06:51:54;8.80;99.90
2407;DHT22;37709;53.480;9.688;2023-04-16T06:54:22;8.80;99.90
2407;DHT22;37709;53.480;9.688;2023-04-16T06:56:49;8.80;99.90
2407;DHT22;37709;53.480;9.688;2023-04-16T06:59:16;8.80;99.90
2407;DHT22;37709;53.480;9.688;2023-04-16T07:01:45;8.90;99.90
2407;DHT22;37709;53.480;9.688;2023-04-16T07:04:13;9.20;99.90
2407;DHT22;37709;53.480;9.688;2023-04-16T07:06:41;9.50;99.90
2407;DHT22;37709;53.480;9.688;2023-04-16T07:09:08;9.70;99.90
2407;DHT22;37709;53.480;9.688;2023-04-16T07:11:35;9.90;99.90
2407;DHT22;37709;53.480;9.688;2023-04-16T07:14:03;10.00;99.90
2407;DHT22;37709;53.480;9.688;2023-04-16T07:16:31;9.90;99.90
2407;DHT22;37709;53.480;9.688;2023-04-16T07:18:59;9.80;99.90
2407;DHT22;37709;53.480;9.688;2023-04-16T07:21:26;9.80;99.90
2407;DHT22;37709;53.480;9.688;2023-04-16T07:23:53;9.80;99.90
2407;DHT22;37709;53.480;9.688;2023-04-16T07:26:21;9.80;99.90
2407;DHT22;37709;53.480;9.688;2023-04-16T07:28:48;9.90;99.90
2407;DHT22;37709;53.480;9.688;2023-04-16T07:31:15;9.90;99.90
2407;DHT22;37709;53.480;9.688;2023-04-16T07:33:43;9.90;99.90
2407;DHT22;37709;53.480;9.688;2023-04-16T07:36:10;10.00;99.90
2407;DHT22;37709;53.480;9.688;2023-04-16T07:38:38;10.20;99.90
2407;DHT22;37709;53.480;9.688;2023-04-16T07:41:05;10.30;99.90
2407;DHT22;37709;53.480;9.688;2023-04-16T07:43:33;10.40;99.90
2407;DHT22;37709;53.480;9.688;2023-04-16T07:46:02;10.60;99.90
2407;DHT22;37709;53.480;9.688;2023-04-16T07:48:29;10.60;99.90
2407;DHT22;37709;53.480;9.688;2023-04-16T07:50:57;10.80;99.90
2407;DHT22;37709;53.480;9.688;2023-04-16T07:53:28;10.90;99.90
2407;DHT22;37709;53.480;9.688;2023-04-16T07:55:55;11.00;99.90
2407;DHT22;37709;53.480;9.688;2023-04-16T07:58:22;11.10;99.90
2407;DHT22;37709;53.480;9.688;2023-04-16T08:00:50;11.10;99.90
2407;DHT22;37709;53.480;9.688;2023-04-16T08:03:17;11.20;99.90
2407;DHT22;37709;53.480;9.688;2023-04-16T08:05:46;11.20;99.90
2407;DHT22;37709;53.480;9.688;2023-04-16T08:08:13;11.30;99.90
2407;DHT22;37709;53.480;9.688;2023-04-16T08:11:05;11.40;99.90
2407;DHT22;37709;53.480;9.688;2023-04-16T08:13:33;11.50;99.90
2407;DHT22;37709;53.480;9.688;2023-04-16T08:16:00;11.50;99.90
2407;DHT22;37709;53.480;9.688;2023-04-16T08:18:28;11.50;99.90
2407;DHT22;37709;53.480;9.688;2023-04-16T08:20:56;11.70;99.90
2407;DHT22;37709;53.480;9.688;2023-04-16T08:23:23;12.00;99.90
2407;DHT22;37709;53.480;9.688;2023-04-16T08:25:51;12.30;99.90
2407;DHT22;37709;53.480;9.688;2023-04-16T08:28:19;12.80;99.90
2407;DHT22;37709;53.480;9.688;2023-04-16T08:30:47;13.10;99.90
2407;DHT22;37709;53.480;9.688;2023-04-16T08:33:14;13.50;99.90
2407;DHT22;37709;53.480;9.688;2023-04-16T08:35:42;13.80;99.90
2407;DHT22;37709;53.480;9.688;2023-04-16T08:38:10;14.20;99.90
2407;DHT22;37709;53.480;9.688;2023-04-16T08:40:37;14.60;99.90
2407;DHT22;37709;53.480;9.688;2023-04-16T08:43:09;15.10;99.90
2407;DHT22;37709;53.480;9.688;2023-04-16T08:45:40;15.70;99.90
2407;DHT22;37709;53.480;9.688;2023-04-16T08:48:11;15.80;99.90
2407;DHT22;37709;53.480;9.688;2023-04-16T08:50:39;15.70;99.90
2407;DHT22;37709;53.480;9.688;2023-04-16T08:53:09;15.80;99.90
2407;DHT22;37709;53.480;9.688;2023-04-16T08:55:39;15.50;99.90
2407;DHT22;37709;53.480;9.688;2023-04-16T08:58:14;15.00;99.90
2407;DHT22;37709;53.480;9.688;2023-04-16T09:00:44;14.90;99.90
2407;DHT22;37709;53.480;9.688;2023-04-16T09:03:12;15.00;99.90
2407;DHT22;37709;53.480;9.688;2023-04-16T09:05:41;15.20;99.90
2407;DHT22;37709;53.480;9.688;2023-04-16T09:08:08;15.50;99.90
2407;DHT22;37709;53.480;9.688;2023-04-16T09:10:35;15.60;99.90
2407;DHT22;37709;53.480;9.688;2023-04-16T09:13:03;15.50;99.90
2407;DHT22;37709;53.480;9.688;2023-04-16T09:15:31;15.60;99.90
2407;DHT22;37709;53.480;9.688;2023-04-16T09:18:01;15.70;99.90
2407;DHT22;37709;53.480;9.688;2023-04-16T09:20:29;15.70;99.90
2407;DHT22;37709;53.480;9.688;2023-04-16T09:22:57;15.70;99.90
2407;DHT22;37709;53.480;9.688;2023-04-16T09:25:24;15.80;99.90
2407;DHT22;37709;53.480;9.688;2023-04-16T09:27:52;15.70;99.90
2407;DHT22;37709;53.480;9.688;2023-04-16T09:30:24;16.00;99.90
2407;DHT22;37709;53.480;9.688;2023-04-16T09:33:11;16.40;99.90
2407;DHT22;37709;53.480;9.688;2023-04-16T09:35:50;16.30;99.90
2407;DHT22;37709;53.480;9.688;2023-04-16T09:38:19;16.30;99.90
2407;DHT22;37709;53.480;9.688;2023-04-16T09:40:46;16.30;99.90
2407;DHT22;37709;53.480;9.688;2023-04-16T09:43:15;16.60;99.90
2407;DHT22;37709;53.480;9.688;2023-04-16T09:45:53;16.60;99.90
2407;DHT22;37709;53.480;9.688;2023-04-16T09:48:29;16.90;99.90
2407;DHT22;37709;53.480;9.688;2023-04-16T09:50:57;17.00;99.90
2407;DHT22;37709;53.480;9.688;2023-04-16T09:53:26;17.10;99.90
2407;DHT22;37709;53.480;9.688;2023-04-16T09:56:01;17.50;99.90
2407;DHT22;37709;53.480;9.688;2023-04-16T09:58:29;18.70;99.90
2407;DHT22;37709;53.480;9.688;2023-04-16T10:03:34;20.00;97.80
2407;DHT22;37709;53.480;9.688;2023-04-16T10:06:15;20.70;97.00
2407;DHT22;37709;53.480;9.688;2023-04-16T10:11:16;20.10;96.10
2407;DHT22;37709;53.480;9.688;2023-04-16T10:13:44;20.30;96.00
2407;DHT22;37709;53.480;9.688;2023-04-16T10:16:12;19.90;95.10
2407;DHT22;37709;53.480;9.688;2023-04-16T10:18:42;19.50;95.80
2407;DHT22;37709;53.480;9.688;2023-04-16T10:21:10;19.10;96.20
2407;DHT22;37709;53.480;9.688;2023-04-16T10:23:39;18.60;96.50
2407;DHT22;37709;53.480;9.688;2023-04-16T10:26:07;18.30;96.90
2407;DHT22;37709;53.480;9.688;2023-04-16T10:28:34;18.00;97.10
2407;DHT22;37709;53.480;9.688;2023-04-16T10:31:04;17.60;96.90
2407;DHT22;37709;53.480;9.688;2023-04-16T10:33:35;17.40;97.10
2407;DHT22;37709;53.480;9.688;2023-04-16T10:36:14;17.30;97.00
2407;DHT22;37709;53.480;9.688;2023-04-16T10:38:49;17.20;98.00
2407;DHT22;37709;53.480;9.688;2023-04-16T10:41:21;17.00;98.20
2407;DHT22;37709;53.480;9.688;2023-04-16T10:43:49;17.30;98.20
2407;DHT22;37709;53.480;9.688;2023-04-16T10:46:31;17.40;97.90
2407;DHT22;37709;53.480;9.688;2023-04-16T10:49:01;17.20;97.90
2407;DHT22;37709;53.480;9.688;2023-04-16T10:51:33;17.40;97.90
2407;DHT22;37709;53.480;9.688;2023-04-16T10:54:40;17.60;97.50
2407;DHT22;37709;53.480;9.688;2023-04-16T10:57:14;17.80;97.30
2407;DHT22;37709;53.480;9.688;2023-04-16T10:59:43;18.20;97.30
2407;DHT22;37709;53.480;9.688;2023-04-16T11:02:15;18.40;96.20
2407;DHT22;37709;53.480;9.688;2023-04-16T11:04:46;18.40;96.30
2407;DHT22;37709;53.480;9.688;2023-04-16T11:07:17;18.30;96.30
2407;DHT22;37709;53.480;9.688;2023-04-16T11:09:54;18.10;96.70
2407;DHT22;37709;53.480;9.688;2023-04-16T11:15:07;17.40;97.30
2407;DHT22;37709;53.480;9.688;2023-04-16T11:17:43;17.10;97.90
2407;DHT22;37709;53.480;9.688;2023-04-16T11:20:17;16.60;97.60
2407;DHT22;37709;53.480;9.688;2023-04-16T11:22:50;16.50;98.40
2407;DHT22;37709;53.480;9.688;2023-04-16T11:25:19;16.30;98.60
2407;DHT22;37709;53.480;9.688;2023-04-16T11:27:47;16.10;99.20
2407;DHT22;37709;53.480;9.688;2023-04-16T11:30:15;15.90;99.50
2407;DHT22;37709;53.480;9.688;2023-04-16T11:32:43;15.80;99.70
2407;DHT22;37709;53.480;9.688;2023-04-16T11:35:16;15.60;99.30
2407;DHT22;37709;53.480;9.688;2023-04-16T11:37:44;15.30;99.50
2407;DHT22;37709;53.480;9.688;2023-04-16T11:40:12;15.30;99.90
2407;DHT22;37709;53.480;9.688;2023-04-16T11:42:40;15.30;99.90
2407;DHT22;37709;53.480;9.688;2023-04-16T11:45:10;15.10;99.80
2407;DHT22;37709;53.480;9.688;2023-04-16T11:47:43;14.90;99.90
2407;DHT22;37709;53.480;9.688;2023-04-16T11:50:26;14.90;99.90
2407;DHT22;37709;53.480;9.688;2023-04-16T11:52:56;14.90;99.90
2407;DHT22;37709;53.480;9.688;2023-04-16T11:55:23;14.90;99.90
2407;DHT22;37709;53.480;9.688;2023-04-16T11:57:51;14.80;99.90
2407;DHT22;37709;53.480;9.688;2023-04-16T12:00:19;14.80;99.90
2407;DHT22;37709;53.480;9.688;2023-04-16T12:02:52;14.90;99.90
2407;DHT22;37709;53.480;9.688;2023-04-16T12:08:02;15.00;99.90
2407;DHT22;37709;53.480;9.688;2023-04-16T12:10:32;15.10;99.90
2407;DHT22;37709;53.480;9.688;2023-04-16T12:13:13;15.20;99.90
2407;DHT22;37709;53.480;9.688;2023-04-16T12:15:52;15.20;99.90
2407;DHT22;37709;53.480;9.688;2023-04-16T12:18:21;15.20;99.90
2407;DHT22;37709;53.480;9.688;2023-04-16T12:20:49;15.30;99.90
2407;DHT22;37709;53.480;9.688;2023-04-16T12:23:28;15.50;99.90
2407;DHT22;37709;53.480;9.688;2023-04-16T12:25:56;15.70;99.90
2407;DHT22;37709;53.480;9.688;2023-04-16T12:28:34;15.80;99.90
2407;DHT22;37709;53.480;9.688;2023-04-16T12:31:03;15.90;99.90
2407;DHT22;37709;53.480;9.688;2023-04-16T12:33:31;15.90;99.90
2407;DHT22;37709;53.480;9.688;2023-04-16T12:35:58;16.00;99.90
2407;DHT22;37709;53.480;9.688;2023-04-16T12:38:27;16.10;99.90
2407;DHT22;37709;53.480;9.688;2023-04-16T12:40:55;16.30;99.90
2407;DHT22;37709;53.480;9.688;2023-04-16T12:43:23;16.20;99.30
2407;DHT22;37709;53.480;9.688;2023-04-16T12:45:51;16.10;99.30
2407;DHT22;37709;53.480;9.688;2023-04-16T12:48:18;16.10;99.70
2407;DHT22;37709;53.480;9.688;2023-04-16T12:50:46;16.10;99.30
2407;DHT22;37709;53.480;9.688;2023-04-16T12:53:15;16.30;99.90
2407;DHT22;37709;53.480;9.688;2023-04-16T12:55:42;16.50;99.10
2407;DHT22;37709;53.480;9.688;2023-04-16T12:58:12;16.60;99.30
2407;DHT22;37709;53.480;9.688;2023-04-16T13:00:39;16.60;98.60
2407;DHT22;37709;53.480;9.688;2023-04-16T13:03:07;16.60;98.90
2407;DHT22;37709;53.480;9.688;2023-04-16T13:05:35;16.70;99.20
2407;DHT22;37709;53.480;9.688;2023-04-16T13:08:02;16.60;99.00
2407;DHT22;37709;53.480;9.688;2023-04-16T13:10:30;16.50;98.90
2407;DHT22;37709;53.480;9.688;2023-04-16T13:12:57;16.60;99.20
2407;DHT22;37709;53.480;9.688;2023-04-16T13:15:24;16.60;99.00
2407;DHT22;37709;53.480;9.688;2023-04-16T13:17:52;16.50;99.20
2407;DHT22;37709;53.480;9.688;2023-04-16T13:20:19;16.50;99.30
2407;DHT22;37709;53.480;9.688;2023-04-16T13:22:50;16.50;99.10
2407;DHT22;37709;53.480;9.688;2023-04-16T13:25:18;16.40;99.20
2407;DHT22;37709;53.480;9.688;2023-04-16T13:27:45;16.40;99.00
2407;DHT22;37709;53.480;9.688;2023-04-16T13:30:13;16.40;99.30
2407;DHT22;37709;53.480;9.688;2023-04-16T13:32:40;16.20;99.30
2407;DHT22;37709;53.480;9.688;2023-04-16T13:35:09;16.10;99.60
2407;DHT22;37709;53.480;9.688;2023-04-16T13:37:37;16.00;99.90
2407;DHT22;37709;53.480;9.688;2023-04-16T13:40:05;15.90;99.70
2407;DHT22;37709;53.480;9.688;2023-04-16T13:42:32;16.00;99.80
2407;DHT22;37709;53.480;9.688;2023-04-16T13:45:00;15.90;99.90
2407;DHT22;37709;53.480;9.688;2023-04-16T13:47:27;15.90;99.70
2407;DHT22;37709;53.480;9.688;2023-04-16T13:49:55;16.10;99.50
2407;DHT22;37709;53.480;9.688;2023-04-16T13:52:22;16.10;99.70
2407;DHT22;37709;53.480;9.688;2023-04-16T13:54:50;16.20;99.30
2407;DHT22;37709;53.480;9.688;2023-04-16T13:57:20;16.20;99.00
2407;DHT22;37709;53.480;9.688;2023-04-16T13:59:48;16.30;99.50
2407;DHT22;37709;53.480;9.688;2023-04-16T14:02:15;16.50;99.50
2407;DHT22;37709;53.480;9.688;2023-04-16T14:04:43;16.60;99.60
2407;DHT22;37709;53.480;9.688;2023-04-16T14:07:11;16.60;99.30
2407;DHT22;37709;53.480;9.688;2023-04-16T14:09:38;16.70;99.00
2407;DHT22;37709;53.480;9.688;2023-04-16T14:12:06;16.70;98.90
2407;DHT22;37709;53.480;9.688;2023-04-16T14:14:34;16.70;98.80
2407;DHT22;37709;53.480;9.688;2023-04-16T14:17:01;16.60;98.80
2407;DHT22;37709;53.480;9.688;2023-04-16T14:19:29;16.70;98.70
2407;DHT22;37709;53.480;9.688;2023-04-16T14:21:57;16.60;98.70
2407;DHT22;37709;53.480;9.688;2023-04-16T14:24:24;16.60;99.10
2407;DHT22;37709;53.480;9.688;2023-04-16T14:26:51;16.60;98.90
2407;DHT22;37709;53.480;9.688;2023-04-16T14:29:19;16.70;98.90
2407;DHT22;37709;53.480;9.688;2023-04-16T14:31:46;16.80;98.80
2407;DHT22;37709;53.480;9.688;2023-04-16T14:34:14;16.80;98.90
2407;DHT22;37709;53.480;9.688;2023-04-16T14:36:42;16.90;98.90
2407;DHT22;37709;53.480;9.688;2023-04-16T14:39:10;16.90;98.80
2407;DHT22;37709;53.480;9.688;2023-04-16T14:41:38;17.00;99.10
2407;DHT22;37709;53.480;9.688;2023-04-16T14:44:06;17.00;98.90
2407;DHT22;37709;53.480;9.688;2023-04-16T14:46:34;16.90;98.90
2407;DHT22;37709;53.480;9.688;2023-04-16T14:49:03;16.90;98.90
2407;DHT22;37709;53.480;9.688;2023-04-16T14:51:30;16.80;98.90
2407;DHT22;37709;53.480;9.688;2023-04-16T14:53:58;16.70;98.60
2407;DHT22;37709;53.480;9.688;2023-04-16T14:56:25;16.60;98.90
2407;DHT22;37709;53.480;9.688;2023-04-16T14:58:53;16.60;99.20
2407;DHT22;37709;53.480;9.688;2023-04-16T15:01:20;16.60;98.90
2407;DHT22;37709;53.480;9.688;2023-04-16T15:03:47;16.50;99.30
2407;DHT22;37709;53.480;9.688;2023-04-16T15:06:15;16.40;99.20
2407;DHT22;37709;53.480;9.688;2023-04-16T15:08:43;16.30;99.40
2407;DHT22;37709;53.480;9.688;2023-04-16T15:11:10;16.20;99.50
2407;DHT22;37709;53.480;9.688;2023-04-16T15:13:38;16.10;99.40
2407;DHT22;37709;53.480;9.688;2023-04-16T15:16:05;16.00;99.90
2407;DHT22;37709;53.480;9.688;2023-04-16T15:18:33;16.00;99.80
2407;DHT22;37709;53.480;9.688;2023-04-16T15:21:00;15.90;99.60
2407;DHT22;37709;53.480;9.688;2023-04-16T15:23:28;15.90;99.90
2407;DHT22;37709;53.480;9.688;2023-04-16T15:25:55;15.80;99.70
2407;DHT22;37709;53.480;9.688;2023-04-16T15:28:22;15.80;99.70
2407;DHT22;37709;53.480;9.688;2023-04-16T15:30:50;15.70;99.90
2407;DHT22;37709;53.480;9.688;2023-04-16T15:33:21;15.70;99.90
2407;DHT22;37709;53.480;9.688;2023-04-16T15:35:48;15.60;99.90
2407;DHT22;37709;53.480;9.688;2023-04-16T15:38:17;15.60;99.90
2407;DHT22;37709;53.480;9.688;2023-04-16T15:40:47;15.50;99.90
2407;DHT22;37709;53.480;9.688;2023-04-16T15:43:15;15.40;99.90
2407;DHT22;37709;53.480;9.688;2023-04-16T15:45:42;15.30;99.90
2407;DHT22;37709;53.480;9.688;2023-04-16T15:48:10;15.20;99.90
2407;DHT22;37709;53.480;9.688;2023-04-16T15:50:37;15.10;99.90
2407;DHT22;37709;53.480;9.688;2023-04-16T15:53:05;15.00;99.90
2407;DHT22;37709;53.480;9.688;2023-04-16T15:55:33;14.90;99.90
2407;DHT22;37709;53.480;9.688;2023-04-16T15:58:01;14.80;99.90
2407;DHT22;37709;53.480;9.688;2023-04-16T16:00:29;14.70;99.90
2407;DHT22;37709;53.480;9.688;2023-04-16T16:02:57;14.60;99.90
2407;DHT22;37709;53.480;9.688;2023-04-16T16:05:25;14.40;99.90
2407;DHT22;37709;53.480;9.688;2023-04-16T16:07:53;14.20;99.90
2407;DHT22;37709;53.480;9.688;2023-04-16T16:10:20;14.00;99.90
2407;DHT22;37709;53.480;9.688;2023-04-16T16:12:48;13.90;99.90